sensor_id;sensor_type;location;lat;lon;timestamp;pressure;altitude;pressure_sealevel;temperature;humidity
55755;BME280;41674;52.290;-1.474;2022-09-13T00:00:16;100669.59;;;14.17;100.00
55755;BME280;41674;52.290;-1.474;2022-09-13T00:02:46;100668.37;;;12.91;100.00
55755;BME280;41674;52.290;-1.474;2022-09-13T00:05:15;100665.38;;;13.51;100.00
55755;BME280;41674;52.290;-1.474;2022-09-13T00:07:44;100665.04;;;13.38;100.00
55755;BME280;41674;52.290;-1.474;2022-09-13T00:10:14;100663.10;;;13.02;100.00
55755;BME280;41674;52.290;-1.474;2022-09-13T00:12:44;100662.60;;;14.03;100.00
55755;BME280;41674;52.290;-1.474;2022-09-13T00:15:13;100664.96;;;13.11;100.00
55755;BME280;41674;52.290;-1.474;2022-09-13T00:17:43;100670.64;;;12.77;100.00
55755;BME280;41674;52.290;-1.474;2022-09-13T00:20:13;100662.75;;;13.36;100.00
55755;BME280;41674;52.290;-1.474;2022-09-13T00:22:42;100665.63;;;12.87;100.00
55755;BME280;41674;52.290;-1.474;2022-09-13T00:25:11;100668.78;;;12.93;100.00
55755;BME280;41674;52.290;-1.474;2022-09-13T00:27:41;100666.11;;;13.52;100.00
55755;BME280;41674;52.290;-1.474;2022-09-13T00:30:11;100668.53;;;13.77;100.00
55755;BME280;41674;52.290;-1.474;2022-09-13T00:32:40;100672.29;;;14.25;98.35
55755;BME280;41674;52.290;-1.474;2022-09-13T00:35:10;100677.47;;;13.80;99.41
55755;BME280;41674;52.290;-1.474;2022-09-13T00:37:39;100676.09;;;13.40;100.00
55755;BME280;41674;52.290;-1.474;2022-09-13T00:40:09;100676.67;;;14.43;96.40
55755;BME280;41674;52.290;-1.474;2022-09-13T00:42:38;100675.87;;;14.76;94.35
55755;BME280;41674;52.290;-1.474;2022-09-13T00:45:15;100672.65;;;13.48;98.92
55755;BME280;41674;52.290;-1.474;2022-09-13T00:47:39;100675.43;;;12.87;100.00
55755;BME280;41674;52.290;-1.474;2022-09-13T00:50:10;100671.81;;;13.30;100.00
55755;BME280;41674;52.290;-1.474;2022-09-13T00:52:37;100669.32;;;13.90;98.04
55755;BME280;41674;52.290;-1.474;2022-09-13T00:55:12;100668.88;;;12.93;99.83
55755;BME280;41674;52.290;-1.474;2022-09-13T00:57:36;100676.53;;;12.88;100.00
55755;BME280;41674;52.290;-1.474;2022-09-13T01:00:08;100676.78;;;11.99;100.00
55755;BME280;41674;52.290;-1.474;2022-09-13T01:02:35;100679.81;;;12.05;100.00
55755;BME280;41674;52.290;-1.474;2022-09-13T01:05:05;100676.29;;;11.87;100.00
55755;BME280;41674;52.290;-1.474;2022-09-13T01:07:34;100674.72;;;12.21;100.00
55755;BME280;41674;52.290;-1.474;2022-09-13T01:10:05;100675.21;;;12.74;100.00
55755;BME280;41674;52.290;-1.474;2022-09-13T01:12:38;100674.13;;;13.20;98.89
55755;BME280;41674;52.290;-1.474;2022-09-13T01:15:05;100677.80;;;12.16;100.00
55755;BME280;41674;52.290;-1.474;2022-09-13T01:17:37;100674.80;;;11.95;100.00
55755;BME280;41674;52.290;-1.474;2022-09-13T01:20:04;100674.25;;;12.08;100.00
55755;BME280;41674;52.290;-1.474;2022-09-13T01:25:11;100667.83;;;13.30;99.42
55755;BME280;41674;52.290;-1.474;2022-09-13T01:27:40;100667.05;;;13.20;98.95
55755;BME280;41674;52.290;-1.474;2022-09-13T01:30:09;100669.82;;;14.17;95.06
55755;BME280;41674;52.290;-1.474;2022-09-13T01:32:36;100675.06;;;14.07;93.79
55755;BME280;41674;52.290;-1.474;2022-09-13T01:35:06;100671.38;;;13.90;93.19
55755;BME280;41674;52.290;-1.474;2022-09-13T01:37:38;100663.34;;;13.38;95.97
55755;BME280;41674;52.290;-1.474;2022-09-13T01:40:04;100667.59;;;12.05;100.00
55755;BME280;41674;52.290;-1.474;2022-09-13T01:42:37;100666.73;;;12.50;99.60
55755;BME280;41674;52.290;-1.474;2022-09-13T01:45:05;100668.11;;;12.05;100.00
55755;BME280;41674;52.290;-1.474;2022-09-13T01:47:30;100660.69;;;13.26;97.21
55755;BME280;41674;52.290;-1.474;2022-09-13T01:50:07;100661.71;;;13.01;96.17
55755;BME280;41674;52.290;-1.474;2022-09-13T01:52:31;100668.47;;;12.97;97.65
55755;BME280;41674;52.290;-1.474;2022-09-13T01:55:02;100673.70;;;12.57;100.00
55755;BME280;41674;52.290;-1.474;2022-09-13T01:57:29;100667.70;;;12.80;100.00
55755;BME280;41674;52.290;-1.474;2022-09-13T01:59:59;100661.71;;;13.05;96.13
55755;BME280;41674;52.290;-1.474;2022-09-13T02:02:27;100666.59;;;13.35;95.37
55755;BME280;41674;52.290;-1.474;2022-09-13T02:05:00;100665.77;;;11.38;100.00
55755;BME280;41674;52.290;-1.474;2022-09-13T02:07:26;100672.56;;;11.44;100.00
55755;BME280;41674;52.290;-1.474;2022-09-13T02:09:57;100666.15;;;12.34;98.53
55755;BME280;41674;52.290;-1.474;2022-09-13T02:12:25;100663.21;;;11.80;100.00
55755;BME280;41674;52.290;-1.474;2022-09-13T02:14:56;100668.75;;;11.68;100.00
55755;BME280;41674;52.290;-1.474;2022-09-13T02:17:23;100667.06;;;11.13;100.00
55755;BME280;41674;52.290;-1.474;2022-09-13T02:19:55;100669.19;;;11.24;100.00
55755;BME280;41674;52.290;-1.474;2022-09-13T02:22:24;100665.67;;;13.06;96.16
55755;BME280;41674;52.290;-1.474;2022-09-13T02:24:53;100668.72;;;13.97;90.57
55755;BME280;41674;52.290;-1.474;2022-09-13T02:27:23;100668.35;;;13.88;89.74
55755;BME280;41674;52.290;-1.474;2022-09-13T02:29:53;100665.01;;;14.02;88.47
55755;BME280;41674;52.290;-1.474;2022-09-13T02:32:22;100660.76;;;13.55;88.53
55755;BME280;41674;52.290;-1.474;2022-09-13T02:34:52;100658.43;;;14.17;85.29
55755;BME280;41674;52.290;-1.474;2022-09-13T02:37:19;100651.69;;;13.08;89.33
55755;BME280;41674;52.290;-1.474;2022-09-13T02:39:52;100655.24;;;12.14;93.92
55755;BME280;41674;52.290;-1.474;2022-09-13T02:42:20;100652.21;;;12.20;93.85
55755;BME280;41674;52.290;-1.474;2022-09-13T02:44:49;100651.74;;;13.18;92.27
55755;BME280;41674;52.290;-1.474;2022-09-13T02:47:29;100655.81;;;12.77;92.81
55755;BME280;41674;52.290;-1.474;2022-09-13T02:49:54;100657.79;;;13.86;88.60
55755;BME280;41674;52.290;-1.474;2022-09-13T02:52:21;100661.19;;;13.61;87.74
55755;BME280;41674;52.290;-1.474;2022-09-13T02:54:52;100661.72;;;13.06;90.82
55755;BME280;41674;52.290;-1.474;2022-09-13T02:57:20;100661.79;;;12.51;93.90
55755;BME280;41674;52.290;-1.474;2022-09-13T02:59:45;100661.32;;;12.63;93.17
55755;BME280;41674;52.290;-1.474;2022-09-13T03:02:16;100663.53;;;11.87;96.84
55755;BME280;41674;52.290;-1.474;2022-09-13T03:04:44;100668.89;;;10.81;100.00
55755;BME280;41674;52.290;-1.474;2022-09-13T03:07:14;100664.29;;;11.51;99.48
55755;BME280;41674;52.290;-1.474;2022-09-13T03:09:46;100664.39;;;11.70;99.14
55755;BME280;41674;52.290;-1.474;2022-09-13T03:12:30;100661.22;;;11.78;97.30
55755;BME280;41674;52.290;-1.474;2022-09-13T03:14:48;100657.22;;;12.33;94.63
55755;BME280;41674;52.290;-1.474;2022-09-13T03:17:16;100661.35;;;11.41;99.11
55755;BME280;41674;52.290;-1.474;2022-09-13T03:19:58;100660.06;;;11.41;99.79
55755;BME280;41674;52.290;-1.474;2022-09-13T03:22:26;100663.39;;;11.79;98.31
55755;BME280;41674;52.290;-1.474;2022-09-13T03:24:48;100658.27;;;12.61;93.94
55755;BME280;41674;52.290;-1.474;2022-09-13T03:27:17;100652.64;;;11.54;97.64
55755;BME280;41674;52.290;-1.474;2022-09-13T03:29:44;100649.12;;;11.40;95.84
55755;BME280;41674;52.290;-1.474;2022-09-13T03:32:17;100650.37;;;11.17;99.37
55755;BME280;41674;52.290;-1.474;2022-09-13T03:34:45;100648.27;;;14.05;88.26
55755;BME280;41674;52.290;-1.474;2022-09-13T03:37:15;100645.56;;;12.70;90.54
55755;BME280;41674;52.290;-1.474;2022-09-13T03:42:13;100651.07;;;14.31;84.59
55755;BME280;41674;52.290;-1.474;2022-09-13T03:44:38;100651.00;;;13.05;87.12
55755;BME280;41674;52.290;-1.474;2022-09-13T03:47:07;100648.92;;;12.17;90.36
55755;BME280;41674;52.290;-1.474;2022-09-13T03:49:37;100651.87;;;13.59;85.16
55755;BME280;41674;52.290;-1.474;2022-09-13T03:52:06;100653.38;;;13.48;84.63
55755;BME280;41674;52.290;-1.474;2022-09-13T03:54:37;100653.93;;;14.18;82.52
55755;BME280;41674;52.290;-1.474;2022-09-13T03:57:09;100654.07;;;14.94;80.51
55755;BME280;41674;52.290;-1.474;2022-09-13T03:59:35;100650.72;;;14.88;79.72
55755;BME280;41674;52.290;-1.474;2022-09-13T04:02:04;100652.99;;;16.03;76.71
55755;BME280;41674;52.290;-1.474;2022-09-13T04:04:33;100654.96;;;14.94;78.20
55755;BME280;41674;52.290;-1.474;2022-09-13T04:07:03;100666.18;;;14.28;81.56
55755;BME280;41674;52.290;-1.474;2022-09-13T04:09:33;100659.79;;;14.90;78.31
55755;BME280;41674;52.290;-1.474;2022-09-13T04:12:03;100657.16;;;14.98;77.59
55755;BME280;41674;52.290;-1.474;2022-09-13T04:14:32;100664.48;;;14.99;79.15
55755;BME280;41674;52.290;-1.474;2022-09-13T04:17:01;100668.07;;;14.83;79.94
55755;BME280;41674;52.290;-1.474;2022-09-13T04:19:31;100662.64;;;15.09;78.42
55755;BME280;41674;52.290;-1.474;2022-09-13T04:22:01;100664.40;;;14.96;79.20
55755;BME280;41674;52.290;-1.474;2022-09-13T04:24:30;100665.09;;;14.73;78.62
55755;BME280;41674;52.290;-1.474;2022-09-13T04:27:00;100661.39;;;14.74;79.31
55755;BME280;41674;52.290;-1.474;2022-09-13T04:29:29;100659.52;;;14.92;79.57
55755;BME280;41674;52.290;-1.474;2022-09-13T04:31:59;100659.71;;;15.36;77.86
55755;BME280;41674;52.290;-1.474;2022-09-13T04:34:28;100667.29;;;14.59;79.45
55755;BME280;41674;52.290;-1.474;2022-09-13T04:36:58;100669.04;;;13.90;80.65
55755;BME280;41674;52.290;-1.474;2022-09-13T04:39:27;100674.04;;;14.47;80.52
55755;BME280;41674;52.290;-1.474;2022-09-13T04:41:57;100678.51;;;15.06;79.59
55755;BME280;41674;52.290;-1.474;2022-09-13T04:44:26;100674.39;;;14.96;77.10
55755;BME280;41674;52.290;-1.474;2022-09-13T04:46:56;100672.09;;;15.37;77.37
55755;BME280;41674;52.290;-1.474;2022-09-13T04:49:26;100670.60;;;15.55;76.48
55755;BME280;41674;52.290;-1.474;2022-09-13T04:51:55;100670.41;;;15.18;76.99
55755;BME280;41674;52.290;-1.474;2022-09-13T04:54:25;100678.19;;;14.57;79.76
55755;BME280;41674;52.290;-1.474;2022-09-13T04:56:54;100674.18;;;15.12;77.09
55755;BME280;41674;52.290;-1.474;2022-09-13T04:59:24;100676.77;;;14.57;79.40
55755;BME280;41674;52.290;-1.474;2022-09-13T05:01:54;100674.71;;;14.33;80.58
55755;BME280;41674;52.290;-1.474;2022-09-13T05:04:23;100671.93;;;13.77;81.83
55755;BME280;41674;52.290;-1.474;2022-09-13T05:06:53;100672.47;;;14.01;82.41
55755;BME280;41674;52.290;-1.474;2022-09-13T05:09:22;100675.32;;;14.70;80.32
55755;BME280;41674;52.290;-1.474;2022-09-13T05:11:52;100676.70;;;14.14;81.41
55755;BME280;41674;52.290;-1.474;2022-09-13T05:14:21;100679.17;;;13.54;84.77
55755;BME280;41674;52.290;-1.474;2022-09-13T05:16:51;100682.70;;;13.07;86.39
55755;BME280;41674;52.290;-1.474;2022-09-13T05:19:21;100685.42;;;14.29;81.42
55755;BME280;41674;52.290;-1.474;2022-09-13T05:21:50;100683.89;;;14.45;80.07
55755;BME280;41674;52.290;-1.474;2022-09-13T05:24:20;100682.00;;;14.60;79.67
55755;BME280;41674;52.290;-1.474;2022-09-13T05:26:49;100681.76;;;14.44;78.51
55755;BME280;41674;52.290;-1.474;2022-09-13T05:29:19;100678.04;;;13.68;81.67
55755;BME280;41674;52.290;-1.474;2022-09-13T05:31:48;100684.85;;;14.27;80.74
55755;BME280;41674;52.290;-1.474;2022-09-13T05:34:18;100693.54;;;14.69;78.95
55755;BME280;41674;52.290;-1.474;2022-09-13T05:36:48;100699.07;;;14.67;79.13
55755;BME280;41674;52.290;-1.474;2022-09-13T05:39:17;100703.32;;;14.54;79.26
55755;BME280;41674;52.290;-1.474;2022-09-13T05:41:47;100704.67;;;13.98;80.12
55755;BME280;41674;52.290;-1.474;2022-09-13T05:44:16;100704.28;;;14.16;79.94
55755;BME280;41674;52.290;-1.474;2022-09-13T05:46:46;100704.00;;;14.53;78.39
55755;BME280;41674;52.290;-1.474;2022-09-13T05:49:16;100704.16;;;13.96;80.98
55755;BME280;41674;52.290;-1.474;2022-09-13T05:51:45;100705.15;;;13.75;81.31
55755;BME280;41674;52.290;-1.474;2022-09-13T05:54:15;100707.11;;;14.37;80.74
55755;BME280;41674;52.290;-1.474;2022-09-13T05:56:44;100707.05;;;14.85;78.61
55755;BME280;41674;52.290;-1.474;2022-09-13T05:59:14;100706.51;;;14.59;78.48
55755;BME280;41674;52.290;-1.474;2022-09-13T06:01:43;100710.84;;;14.63;78.34
55755;BME280;41674;52.290;-1.474;2022-09-13T06:04:13;100713.85;;;14.64;78.44
55755;BME280;41674;52.290;-1.474;2022-09-13T06:06:43;100713.73;;;14.78;78.19
55755;BME280;41674;52.290;-1.474;2022-09-13T06:09:12;100710.25;;;14.31;79.71
55755;BME280;41674;52.290;-1.474;2022-09-13T06:11:42;100706.43;;;14.60;80.43
55755;BME280;41674;52.290;-1.474;2022-09-13T06:14:11;100705.71;;;14.48;79.70
55755;BME280;41674;52.290;-1.474;2022-09-13T06:16:41;100708.01;;;15.12;77.90
55755;BME280;41674;52.290;-1.474;2022-09-13T06:19:11;100703.48;;;13.66;81.13
55755;BME280;41674;52.290;-1.474;2022-09-13T06:21:40;100698.89;;;12.80;84.80
55755;BME280;41674;52.290;-1.474;2022-09-13T06:24:10;100704.72;;;14.21;79.16
55755;BME280;41674;52.290;-1.474;2022-09-13T06:26:39;100701.75;;;15.00;76.43
55755;BME280;41674;52.290;-1.474;2022-09-13T06:29:10;100700.80;;;13.65;79.22
55755;BME280;41674;52.290;-1.474;2022-09-13T06:31:38;100696.75;;;15.18;76.63
55755;BME280;41674;52.290;-1.474;2022-09-13T06:34:10;100702.96;;;14.24;78.57
55755;BME280;41674;52.290;-1.474;2022-09-13T06:36:38;100705.93;;;15.37;74.94
55755;BME280;41674;52.290;-1.474;2022-09-13T06:39:08;100711.52;;;15.71;74.27
55755;BME280;41674;52.290;-1.474;2022-09-13T06:41:37;100712.87;;;14.99;75.86
55755;BME280;41674;52.290;-1.474;2022-09-13T06:44:08;100716.77;;;14.55;77.50
55755;BME280;41674;52.290;-1.474;2022-09-13T06:46:36;100713.00;;;13.43;79.27
55755;BME280;41674;52.290;-1.474;2022-09-13T06:49:08;100713.72;;;14.90;77.87
55755;BME280;41674;52.290;-1.474;2022-09-13T06:51:35;100708.17;;;13.86;80.08
55755;BME280;41674;52.290;-1.474;2022-09-13T06:54:05;100696.24;;;14.98;76.36
55755;BME280;41674;52.290;-1.474;2022-09-13T06:56:36;100685.82;;;14.95;77.50
55755;BME280;41674;52.290;-1.474;2022-09-13T06:59:06;100686.01;;;14.78;78.11
55755;BME280;41674;52.290;-1.474;2022-09-13T07:01:35;100688.94;;;14.44;78.41
55755;BME280;41674;52.290;-1.474;2022-09-13T07:04:04;100687.35;;;14.33;78.84
55755;BME280;41674;52.290;-1.474;2022-09-13T07:06:35;100682.73;;;14.69;78.21
55755;BME280;41674;52.290;-1.474;2022-09-13T07:09:04;100681.93;;;14.45;78.24
55755;BME280;41674;52.290;-1.474;2022-09-13T07:11:34;100689.67;;;14.32;79.61
55755;BME280;41674;52.290;-1.474;2022-09-13T07:14:02;100692.73;;;14.60;77.73
55755;BME280;41674;52.290;-1.474;2022-09-13T07:16:34;100691.69;;;13.31;84.20
55755;BME280;41674;52.290;-1.474;2022-09-13T07:19:02;100700.09;;;14.46;79.21
55755;BME280;41674;52.290;-1.474;2022-09-13T07:21:31;100704.12;;;14.16;81.29
55755;BME280;41674;52.290;-1.474;2022-09-13T07:24:00;100706.56;;;14.73;79.89
55755;BME280;41674;52.290;-1.474;2022-09-13T07:26:30;100703.09;;;15.27;78.46
55755;BME280;41674;52.290;-1.474;2022-09-13T07:29:00;100699.31;;;15.53;76.81
55755;BME280;41674;52.290;-1.474;2022-09-13T07:31:30;100693.48;;;15.54;76.57
55755;BME280;41674;52.290;-1.474;2022-09-13T07:33:59;100700.14;;;13.75;81.79
55755;BME280;41674;52.290;-1.474;2022-09-13T07:36:29;100706.16;;;14.02;80.51
55755;BME280;41674;52.290;-1.474;2022-09-13T07:38:58;100702.96;;;15.29;78.54
55755;BME280;41674;52.290;-1.474;2022-09-13T07:41:28;100705.52;;;15.58;78.04
55755;BME280;41674;52.290;-1.474;2022-09-13T07:43:57;100706.09;;;14.80;78.31
55755;BME280;41674;52.290;-1.474;2022-09-13T07:46:27;100697.93;;;15.70;75.86
55755;BME280;41674;52.290;-1.474;2022-09-13T07:48:56;100703.72;;;14.11;79.72
55755;BME280;41674;52.290;-1.474;2022-09-13T07:51:27;100704.30;;;14.29;78.22
55755;BME280;41674;52.290;-1.474;2022-09-13T07:53:56;100698.50;;;13.47;83.51
55755;BME280;41674;52.290;-1.474;2022-09-13T07:56:25;100704.57;;;14.85;78.84
55755;BME280;41674;52.290;-1.474;2022-09-13T07:58:54;100705.92;;;14.61;78.33
55755;BME280;41674;52.290;-1.474;2022-09-13T08:01:24;100700.25;;;15.01;76.19
55755;BME280;41674;52.290;-1.474;2022-09-13T08:03:54;100698.11;;;15.53;76.57
55755;BME280;41674;52.290;-1.474;2022-09-13T08:06:23;100694.12;;;15.38;75.97
55755;BME280;41674;52.290;-1.474;2022-09-13T08:08:52;100699.63;;;14.70;76.70
55755;BME280;41674;52.290;-1.474;2022-09-13T08:11:23;100691.88;;;15.20;77.46
55755;BME280;41674;52.290;-1.474;2022-09-13T08:13:52;100696.69;;;14.08;80.40
55755;BME280;41674;52.290;-1.474;2022-09-13T08:16:22;100690.71;;;13.55;82.92
55755;BME280;41674;52.290;-1.474;2022-09-13T08:18:51;100691.80;;;14.83;77.21
55755;BME280;41674;52.290;-1.474;2022-09-13T08:21:20;100685.27;;;15.31;76.55
55755;BME280;41674;52.290;-1.474;2022-09-13T08:23:53;100688.31;;;15.34;74.28
55755;BME280;41674;52.290;-1.474;2022-09-13T08:26:19;100700.19;;;14.49;74.95
55755;BME280;41674;52.290;-1.474;2022-09-13T08:28:48;100696.90;;;15.09;78.28
55755;BME280;41674;52.290;-1.474;2022-09-13T08:31:18;100686.32;;;14.90;77.03
55755;BME280;41674;52.290;-1.474;2022-09-13T08:33:48;100680.44;;;15.42;74.80
55755;BME280;41674;52.290;-1.474;2022-09-13T08:36:17;100676.38;;;15.30;75.75
55755;BME280;41674;52.290;-1.474;2022-09-13T08:38:47;100681.01;;;15.64;75.53
55755;BME280;41674;52.290;-1.474;2022-09-13T08:41:29;100692.41;;;15.02;75.73
55755;BME280;41674;52.290;-1.474;2022-09-13T08:43:50;100689.50;;;14.36;78.16
55755;BME280;41674;52.290;-1.474;2022-09-13T08:46:22;100685.38;;;13.72;80.97
55755;BME280;41674;52.290;-1.474;2022-09-13T08:48:46;100684.19;;;14.23;79.22
55755;BME280;41674;52.290;-1.474;2022-09-13T08:51:24;100680.22;;;13.80;79.51
55755;BME280;41674;52.290;-1.474;2022-09-13T08:53:46;100679.46;;;13.98;79.45
55755;BME280;41674;52.290;-1.474;2022-09-13T08:56:21;100674.90;;;13.71;81.17
55755;BME280;41674;52.290;-1.474;2022-09-13T08:58:51;100671.02;;;13.96;81.59
55755;BME280;41674;52.290;-1.474;2022-09-13T09:01:20;100670.23;;;13.64;80.77
55755;BME280;41674;52.290;-1.474;2022-09-13T09:03:47;100660.94;;;14.46;80.85
55755;BME280;41674;52.290;-1.474;2022-09-13T09:06:14;100654.73;;;14.44;83.01
55755;BME280;41674;52.290;-1.474;2022-09-13T09:08:46;100645.88;;;15.02;76.71
55755;BME280;41674;52.290;-1.474;2022-09-13T09:11:19;100647.94;;;14.12;76.29
55755;BME280;41674;52.290;-1.474;2022-09-13T09:13:47;100647.03;;;15.13;76.82
55755;BME280;41674;52.290;-1.474;2022-09-13T09:16:19;100648.73;;;14.23;78.71
55755;BME280;41674;52.290;-1.474;2022-09-13T09:18:41;100642.96;;;13.99;81.21
55755;BME280;41674;52.290;-1.474;2022-09-13T09:21:12;100641.30;;;14.12;79.71
55755;BME280;41674;52.290;-1.474;2022-09-13T09:23:43;100639.58;;;14.90;77.48
55755;BME280;41674;52.290;-1.474;2022-09-13T09:26:14;100642.64;;;13.86;77.11
55755;BME280;41674;52.290;-1.474;2022-09-13T09:28:38;100640.43;;;14.73;78.19
55755;BME280;41674;52.290;-1.474;2022-09-13T09:31:13;100639.29;;;14.36;76.85
55755;BME280;41674;52.290;-1.474;2022-09-13T09:33:48;100632.85;;;14.91;75.95
55755;BME280;41674;52.290;-1.474;2022-09-13T09:36:12;100632.97;;;14.46;75.69
55755;BME280;41674;52.290;-1.474;2022-09-13T09:38:38;100644.77;;;14.07;75.81
55755;BME280;41674;52.290;-1.474;2022-09-13T09:41:13;100646.46;;;14.07;75.60
55755;BME280;41674;52.290;-1.474;2022-09-13T09:43:40;100649.67;;;13.77;79.19
55755;BME280;41674;52.290;-1.474;2022-09-13T09:46:06;100647.87;;;14.31;75.03
55755;BME280;41674;52.290;-1.474;2022-09-13T09:48:39;100653.15;;;13.93;78.48
55755;BME280;41674;52.290;-1.474;2022-09-13T09:51:05;100656.79;;;14.55;78.03
55755;BME280;41674;52.290;-1.474;2022-09-13T09:53:36;100651.10;;;15.54;72.91
55755;BME280;41674;52.290;-1.474;2022-09-13T09:56:19;100650.40;;;14.78;73.54
55755;BME280;41674;52.290;-1.474;2022-09-13T09:58:38;100644.52;;;14.84;71.94
55755;BME280;41674;52.290;-1.474;2022-09-13T10:01:03;100637.70;;;15.18;71.43
55755;BME280;41674;52.290;-1.474;2022-09-13T10:03:33;100632.03;;;15.06;73.44
55755;BME280;41674;52.290;-1.474;2022-09-13T10:06:05;100633.84;;;16.15;69.52
55755;BME280;41674;52.290;-1.474;2022-09-13T10:08:33;100629.18;;;14.62;71.34
55755;BME280;41674;52.290;-1.474;2022-09-13T10:11:01;100633.71;;;15.21;70.74
55755;BME280;41674;52.290;-1.474;2022-09-13T10:13:31;100627.48;;;15.91;67.52
55755;BME280;41674;52.290;-1.474;2022-09-13T10:16:01;100623.67;;;15.85;68.16
55755;BME280;41674;52.290;-1.474;2022-09-13T10:18:30;100624.54;;;15.52;68.63
55755;BME280;41674;52.290;-1.474;2022-09-13T10:21:02;100625.82;;;14.54;74.32
55755;BME280;41674;52.290;-1.474;2022-09-13T10:23:29;100625.61;;;16.04;71.05
55755;BME280;41674;52.290;-1.474;2022-09-13T10:26:03;100618.20;;;15.00;72.02
55755;BME280;41674;52.290;-1.474;2022-09-13T10:28:29;100616.62;;;16.07;69.26
55755;BME280;41674;52.290;-1.474;2022-09-13T10:31:00;100617.22;;;15.84;72.03
55755;BME280;41674;52.290;-1.474;2022-09-13T10:33:30;100613.85;;;15.96;71.01
55755;BME280;41674;52.290;-1.474;2022-09-13T10:35:59;100614.53;;;17.07;69.04
55755;BME280;41674;52.290;-1.474;2022-09-13T10:38:30;100617.57;;;16.74;69.80
55755;BME280;41674;52.290;-1.474;2022-09-13T10:40:55;100626.79;;;15.90;71.45
55755;BME280;41674;52.290;-1.474;2022-09-13T10:43:27;100630.11;;;16.87;68.98
55755;BME280;41674;52.290;-1.474;2022-09-13T10:45:55;100638.46;;;16.10;69.54
55755;BME280;41674;52.290;-1.474;2022-09-13T10:48:24;100636.81;;;17.09;66.32
55755;BME280;41674;52.290;-1.474;2022-09-13T10:51:02;100640.30;;;16.32;67.57
55755;BME280;41674;52.290;-1.474;2022-09-13T10:53:33;100638.02;;;18.71;62.97
55755;BME280;41674;52.290;-1.474;2022-09-13T10:55:53;100632.34;;;17.49;65.88
55755;BME280;41674;52.290;-1.474;2022-09-13T10:58:22;100638.53;;;14.11;71.89
55755;BME280;41674;52.290;-1.474;2022-09-13T11:01:06;100633.37;;;15.35;71.57
55755;BME280;41674;52.290;-1.474;2022-09-13T11:03:29;100630.73;;;15.92;69.55
55755;BME280;41674;52.290;-1.474;2022-09-13T11:05:54;100631.10;;;16.87;65.74
55755;BME280;41674;52.290;-1.474;2022-09-13T11:08:27;100631.55;;;16.79;66.40
55755;BME280;41674;52.290;-1.474;2022-09-13T11:10:59;100630.30;;;16.99;66.46
55755;BME280;41674;52.290;-1.474;2022-09-13T11:13:28;100634.01;;;17.75;63.66
55755;BME280;41674;52.290;-1.474;2022-09-13T11:15:54;100633.85;;;16.90;68.38
55755;BME280;41674;52.290;-1.474;2022-09-13T11:18:30;100622.73;;;18.89;62.04
55755;BME280;41674;52.290;-1.474;2022-09-13T11:20:56;100623.80;;;17.11;66.12
55755;BME280;41674;52.290;-1.474;2022-09-13T11:23:32;100629.35;;;16.17;68.19
55755;BME280;41674;52.290;-1.474;2022-09-13T11:25:59;100631.50;;;17.29;63.90
55755;BME280;41674;52.290;-1.474;2022-09-13T11:28:24;100624.09;;;18.63;62.01
55755;BME280;41674;52.290;-1.474;2022-09-13T11:30:58;100619.06;;;18.51;62.36
55755;BME280;41674;52.290;-1.474;2022-09-13T11:33:25;100612.65;;;19.03;60.04
55755;BME280;41674;52.290;-1.474;2022-09-13T11:35:52;100613.59;;;17.87;61.76
55755;BME280;41674;52.290;-1.474;2022-09-13T11:38:27;100609.04;;;17.97;61.14
55755;BME280;41674;52.290;-1.474;2022-09-13T11:40:50;100612.81;;;17.63;62.19
55755;BME280;41674;52.290;-1.474;2022-09-13T11:43:26;100610.36;;;19.10;61.54
55755;BME280;41674;52.290;-1.474;2022-09-13T11:45:49;100596.41;;;19.35;59.10
55755;BME280;41674;52.290;-1.474;2022-09-13T11:48:27;100600.81;;;20.21;57.92
55755;BME280;41674;52.290;-1.474;2022-09-13T11:50:53;100607.26;;;19.33;58.65
55755;BME280;41674;52.290;-1.474;2022-09-13T11:53:29;100612.64;;;18.96;58.78
55755;BME280;41674;52.290;-1.474;2022-09-13T11:55:46;100616.36;;;17.96;58.39
55755;BME280;41674;52.290;-1.474;2022-09-13T11:58:14;100613.97;;;18.43;58.49
55755;BME280;41674;52.290;-1.474;2022-09-13T12:00:43;100620.71;;;16.80;64.96
55755;BME280;41674;52.290;-1.474;2022-09-13T12:03:15;100623.77;;;18.47;62.29
55755;BME280;41674;52.290;-1.474;2022-09-13T12:05:43;100624.02;;;18.28;58.98
55755;BME280;41674;52.290;-1.474;2022-09-13T12:08:15;100616.15;;;19.90;55.93
55755;BME280;41674;52.290;-1.474;2022-09-13T12:10:44;100614.76;;;20.31;55.51
55755;BME280;41674;52.290;-1.474;2022-09-13T12:13:14;100615.89;;;20.99;55.22
55755;BME280;41674;52.290;-1.474;2022-09-13T12:15:40;100618.20;;;20.40;56.20
55755;BME280;41674;52.290;-1.474;2022-09-13T12:18:12;100622.74;;;20.00;56.15
55755;BME280;41674;52.290;-1.474;2022-09-13T12:20:39;100624.23;;;19.75;57.71
55755;BME280;41674;52.290;-1.474;2022-09-13T12:23:12;100624.55;;;20.04;58.97
55755;BME280;41674;52.290;-1.474;2022-09-13T12:25:41;100625.46;;;19.32;59.36
55755;BME280;41674;52.290;-1.474;2022-09-13T12:28:12;100625.66;;;20.39;56.98
55755;BME280;41674;52.290;-1.474;2022-09-13T12:30:41;100623.86;;;21.35;52.57
55755;BME280;41674;52.290;-1.474;2022-09-13T12:33:05;100626.11;;;20.31;57.58
55755;BME280;41674;52.290;-1.474;2022-09-13T12:35:39;100627.42;;;21.24;52.52
55755;BME280;41674;52.290;-1.474;2022-09-13T12:38:17;100624.26;;;21.48;53.77
55755;BME280;41674;52.290;-1.474;2022-09-13T12:40:50;100624.04;;;20.47;55.23
55755;BME280;41674;52.290;-1.474;2022-09-13T12:43:18;100620.79;;;20.23;53.54
55755;BME280;41674;52.290;-1.474;2022-09-13T12:45:43;100614.48;;;23.33;49.46
55755;BME280;41674;52.290;-1.474;2022-09-13T12:48:16;100612.26;;;23.00;50.06
55755;BME280;41674;52.290;-1.474;2022-09-13T12:50:44;100613.82;;;22.86;50.51
55755;BME280;41674;52.290;-1.474;2022-09-13T12:53:08;100604.21;;;23.85;48.92